Time;durP1;ratioP1;P1;durP2;ratioP2;P2;SDS_P1;SDS_P2;PMS_P1;PMS_P2;Temp;Humidity;BMP_temperature;BMP_pressure;BME280_temperature;BME280_humidity;BME280_pressure;Samples;Min_cycle;Max_cycle;Signal;HPM_P1;HPM_P2
2022/12/25 00:00:47;;;;;;;9.50;5.53;;;11.50;99.90;;;;;;5037018;28;20190;-64
2022/12/25 00:03:13;;;;;;;8.53;5.90;;;11.60;99.90;;;;;;5033383;28;20186;-64
2022/12/25 00:05:39;;;;;;;10.37;5.73;;;11.60;99.90;;;;;;5035415;28;20188;-64
2022/12/25 00:08:06;;;;;;;12.67;6.30;;;11.60;99.90;;;;;;5038093;28;20184;-64
2022/12/25 00:10:32;;;;;;;8.17;7.30;;;11.60;99.90;;;;;;5056950;28;20212;-64
2022/12/25 00:12:57;;;;;;;11.17;6.77;;;11.60;99.90;;;;;;5030570;28;20404;-64
2022/12/25 00:15:23;;;;;;;8.43;7.10;;;11.50;99.90;;;;;;5051027;28;20489;-69
2022/12/25 00:17:49;;;;;;;10.27;7.40;;;11.50;99.90;;;;;;5042314;28;21557;-64
2022/12/25 00:20:14;;;;;;;7.83;6.80;;;11.50;99.90;;;;;;5045276;28;20294;-70
2022/12/25 00:22:40;;;;;;;12.33;6.93;;;11.50;99.90;;;;;;5048853;28;20189;-64
2022/12/25 00:25:06;;;;;;;12.60;6.70;;;11.50;99.90;;;;;;5059582;28;20182;-65
2022/12/25 00:27:32;;;;;;;10.27;5.73;;;11.40;99.90;;;;;;5050552;28;20222;-64
2022/12/25 00:29:59;;;;;;;10.20;7.13;;;11.40;99.90;;;;;;5057041;28;20548;-64
2022/12/25 00:32:25;;;;;;;12.23;6.80;;;11.40;99.90;;;;;;5048971;28;20451;-70
2022/12/25 00:34:50;;;;;;;7.17;5.80;;;11.40;99.90;;;;;;5048550;28;20479;-65
2022/12/25 00:37:16;;;;;;;11.97;5.90;;;11.40;99.90;;;;;;5047514;28;20199;-64
2022/12/25 00:39:42;;;;;;;9.47;6.43;;;11.40;99.90;;;;;;5039242;28;20238;-64
2022/12/25 00:42:17;;;;;;;7.33;5.70;;;11.40;99.90;;;;;;5059220;28;20540;-65
2022/12/25 00:44:47;;;;;;;11.03;6.70;;;11.40;99.90;;;;;;5044983;28;20726;-64
2022/12/25 00:47:13;;;;;;;7.83;6.30;;;11.40;99.90;;;;;;5050553;28;20839;-65
2022/12/25 00:49:39;;;;;;;9.07;6.10;;;11.40;99.90;;;;;;5057981;28;20920;-65
2022/12/25 00:52:05;;;;;;;10.07;6.17;;;11.40;99.90;;;;;;5070830;28;20440;-70
2022/12/25 00:54:31;;;;;;;8.37;5.90;;;11.40;99.90;;;;;;5044782;28;20479;-65
2022/12/25 00:56:56;;;;;;;8.00;6.70;;;11.40;99.90;;;;;;5046327;28;20196;-65
2022/12/25 00:59:22;;;;;;;9.33;5.90;;;11.40;99.90;;;;;;5048813;28;20179;-65
2022/12/25 01:01:48;;;;;;;7.90;6.17;;;11.30;99.90;;;;;;5053572;28;20919;-67
2022/12/25 01:04:14;;;;;;;7.77;6.20;;;11.30;99.90;;;;;;5038168;28;20241;-65
2022/12/25 01:06:40;;;;;;;6.53;5.70;;;11.40;99.90;;;;;;5044540;28;20588;-65
2022/12/25 01:11:50;;;;;;;7.10;5.80;;;11.30;99.90;;;;;;5045631;28;20214;-65
2022/12/25 01:14:16;;;;;;;10.63;6.50;;;11.40;99.90;;;;;;5037647;28;20475;-66
2022/12/25 01:16:42;;;;;;;9.47;6.50;;;11.40;99.90;;;;;;5045708;28;20182;-67
2022/12/25 01:19:09;;;;;;;9.50;5.27;;;11.40;99.90;;;;;;5051493;28;20483;-65
2022/12/25 01:21:37;;;;;;;7.70;6.57;;;11.40;99.90;;;;;;5039827;28;20939;-66
2022/12/25 01:24:03;;;;;;;9.23;6.20;;;11.40;99.90;;;;;;5044148;28;20451;-65
2022/12/25 01:26:29;;;;;;;8.77;6.73;;;11.40;99.90;;;;;;5062856;28;20445;-65
2022/12/25 01:28:55;;;;;;;7.63;6.30;;;11.40;99.90;;;;;;5052746;28;20260;-65
2022/12/25 01:31:22;;;;;;;8.40;6.57;;;11.40;99.90;;;;;;5051832;28;20636;-68
2022/12/25 01:33:49;;;;;;;8.20;6.60;;;11.40;99.90;;;;;;5051733;28;20489;-65
2022/12/25 01:36:17;;;;;;;7.40;5.90;;;11.40;99.90;;;;;;5049306;28;20434;-65
2022/12/25 01:38:45;;;;;;;7.63;5.63;;;11.40;99.90;;;;;;5051005;28;20502;-68
2022/12/25 01:41:12;;;;;;;7.53;6.13;;;11.50;99.90;;;;;;5041042;28;20931;-66
2022/12/25 01:43:58;;;;;;;8.10;6.10;;;11.40;99.90;;;;;;5056234;28;20440;-66
2022/12/25 01:46:24;;;;;;;9.43;5.50;;;11.50;99.90;;;;;;5049103;28;20567;-71
2022/12/25 01:48:52;;;;;;;10.80;6.50;;;11.50;99.90;;;;;;5048685;28;20608;-66
2022/12/25 01:52:04;;;;;;;8.47;6.00;;;11.50;99.90;;;;;;5041301;28;20193;-67
2022/12/25 01:54:37;;;;;;;6.53;5.73;;;11.50;99.90;;;;;;5033613;28;21299;-66
2022/12/25 01:57:08;;;;;;;7.07;5.90;;;11.50;99.90;;;;;;5050509;28;20431;-66
2022/12/25 01:59:33;;;;;;;6.47;5.87;;;11.50;99.90;;;;;;5040921;28;20463;-66
2022/12/25 02:01:59;;;;;;;6.17;4.70;;;11.60;99.90;;;;;;5060439;28;20434;-66
2022/12/25 02:04:40;;;;;;;6.90;5.50;;;11.50;99.90;;;;;;5043115;28;20536;-66
2022/12/25 02:07:13;;;;;;;7.57;5.60;;;11.50;99.90;;;;;;5044098;28;20439;-66
2022/12/25 02:09:39;;;;;;;7.97;6.07;;;11.50;99.90;;;;;;5045645;28;20440;-66
2022/12/25 02:12:08;;;;;;;8.73;6.43;;;11.50;99.90;;;;;;5049857;28;20791;-65
2022/12/25 02:14:36;;;;;;;8.77;6.17;;;11.60;99.90;;;;;;5034151;28;20215;-66
2022/12/25 02:17:26;;;;;;;10.20;7.50;;;11.70;99.90;;;;;;5049093;28;20432;-66
2022/12/25 02:20:06;;;;;;;10.23;6.53;;;11.60;99.90;;;;;;5049929;28;20432;-66
2022/12/25 02:22:53;;;;;;;10.63;7.57;;;11.70;99.90;;;;;;5048306;28;20769;-66
2022/12/25 02:25:50;;;;;;;10.93;8.40;;;11.60;99.90;;;;;;5049476;28;20940;-66
2022/12/25 02:28:26;;;;;;;13.87;7.70;;;11.60;99.90;;;;;;5046135;28;20427;-66
2022/12/25 02:31:11;;;;;;;10.33;8.00;;;11.60;99.90;;;;;;5048646;28;20473;-66
2022/12/25 02:34:03;;;;;;;11.57;7.90;;;11.50;99.90;;;;;;5067414;28;20522;-66
2022/12/25 02:36:50;;;;;;;11.90;9.07;;;11.60;99.90;;;;;;5046521;28;20480;-72
2022/12/25 02:42:21;;;;;;;12.70;7.77;;;11.60;99.90;;;;;;5046606;28;20547;-66
2022/12/25 03:07:15;;;;;;;7.63;6.47;;;11.80;99.90;;;;;;5049670;28;20463;-65
2022/12/25 03:13:03;;;;;;;8.00;6.60;;;11.80;99.90;;;;;;5044287;28;20422;-65
2022/12/25 03:18:17;;;;;;;6.70;5.60;;;11.80;99.90;;;;;;5037775;28;20439;-64
2022/12/25 03:29:02;;;;;;;6.40;5.73;;;11.90;99.90;;;;;;5045115;28;20427;-65
2022/12/25 03:31:43;;;;;;;6.87;6.17;;;11.90;99.90;;;;;;5048375;28;20427;-69
2022/12/25 03:38:32;;;;;;;9.13;5.87;;;11.90;99.90;;;;;;5039768;28;20547;-65
2022/12/25 03:44:40;;;;;;;7.83;5.73;;;11.90;99.90;;;;;;5045317;28;20448;-67
2022/12/25 04:36:47;;;;;;;6.53;6.03;;;12.00;99.90;;;;;;5053372;28;20477;-64
2022/12/25 04:39:15;;;;;;;9.67;7.10;;;12.00;99.90;;;;;;5047381;28;20464;-65
2022/12/25 04:41:40;;;;;;;7.03;6.43;;;12.00;99.90;;;;;;5046515;28;20215;-65
2022/12/25 04:44:07;;;;;;;7.60;6.50;;;12.00;99.90;;;;;;5055786;28;20470;-64
2022/12/25 04:46:33;;;;;;;8.10;6.67;;;12.00;99.90;;;;;;5047084;28;20199;-70
2022/12/25 04:48:59;;;;;;;7.73;6.50;;;12.00;99.90;;;;;;5074973;28;20415;-64
2022/12/25 04:51:25;;;;;;;8.13;5.80;;;12.00;99.90;;;;;;5071638;28;20192;-64
2022/12/25 04:53:52;;;;;;;6.40;5.73;;;12.00;99.90;;;;;;5060525;28;20273;-65
2022/12/25 04:56:19;;;;;;;7.67;6.10;;;12.00;99.90;;;;;;5059382;28;20514;-64
2022/12/25 04:58:45;;;;;;;6.20;5.60;;;12.00;99.90;;;;;;5052671;28;20492;-64
2022/12/25 05:01:11;;;;;;;6.60;6.00;;;12.00;99.90;;;;;;5057109;28;20444;-64
2022/12/25 05:03:38;;;;;;;9.30;6.03;;;12.00;99.90;;;;;;5064789;28;20439;-64
2022/12/25 05:06:04;;;;;;;7.37;6.77;;;12.00;99.90;;;;;;5068819;28;20439;-63
2022/12/25 05:08:32;;;;;;;5.87;5.30;;;12.00;99.90;;;;;;5069218;28;20403;-66
2022/12/25 05:10:59;;;;;;;5.80;5.33;;;12.00;99.90;;;;;;5052702;28;20568;-63
2022/12/25 05:13:25;;;;;;;6.80;5.30;;;12.00;99.90;;;;;;5057008;28;20434;-63
2022/12/25 05:15:51;;;;;;;5.30;4.90;;;11.90;99.90;;;;;;5038547;28;21297;-63
2022/12/25 05:18:16;;;;;;;5.07;4.67;;;11.90;99.90;;;;;;5047576;28;20431;-64
2022/12/25 05:20:42;;;;;;;5.37;4.87;;;12.00;99.90;;;;;;5062352;28;20515;-64
2022/12/25 05:23:10;;;;;;;7.53;5.33;;;12.10;99.90;;;;;;5046838;28;20626;-65
2022/12/25 05:25:39;;;;;;;5.50;5.00;;;12.10;99.90;;;;;;5059756;28;20650;-69
2022/12/25 05:28:06;;;;;;;4.77;4.37;;;12.10;99.90;;;;;;5070874;28;20927;-64
2022/12/25 05:30:33;;;;;;;7.27;5.13;;;12.10;99.90;;;;;;5048016;28;20445;-67
2022/12/25 05:32:58;;;;;;;4.70;4.13;;;12.10;99.90;;;;;;5051500;28;20435;-64
2022/12/25 05:35:24;;;;;;;5.20;4.60;;;12.10;99.90;;;;;;5064121;28;20974;-64
2022/12/25 05:37:50;;;;;;;5.60;4.60;;;12.20;99.90;;;;;;5041143;28;20685;-64
2022/12/25 05:40:15;;;;;;;4.63;4.23;;;12.20;99.90;;;;;;5069830;28;20176;-64
2022/12/25 05:42:41;;;;;;;4.73;4.43;;;12.10;99.90;;;;;;5066476;28;20181;-64
2022/12/25 05:45:07;;;;;;;5.70;4.53;;;12.10;99.90;;;;;;5052947;28;20257;-64
2022/12/25 05:47:33;;;;;;;4.57;4.17;;;12.00;99.90;;;;;;5063687;28;20192;-69
2022/12/25 05:49:58;;;;;;;4.37;4.07;;;12.10;99.90;;;;;;5055543;28;20849;-63
2022/12/25 05:52:24;;;;;;;6.43;4.03;;;12.10;99.90;;;;;;5059178;28;20246;-64
2022/12/25 05:54:50;;;;;;;4.30;4.00;;;12.10;99.90;;;;;;5061141;28;20219;-64
2022/12/25 05:57:15;;;;;;;4.87;4.00;;;12.20;99.90;;;;;;5063506;28;20188;-64
2022/12/25 05:59:41;;;;;;;4.60;4.30;;;12.20;99.90;;;;;;5060248;28;20674;-67
2022/12/25 06:02:07;;;;;;;6.00;4.40;;;12.20;99.90;;;;;;5050841;28;20176;-64
2022/12/25 06:04:32;;;;;;;5.00;4.10;;;12.30;99.90;;;;;;5049422;28;20271;-66
2022/12/25 06:06:58;;;;;;;3.90;3.70;;;12.30;99.90;;;;;;5034738;28;21399;-64
2022/12/25 06:09:24;;;;;;;4.10;3.70;;;12.20;99.90;;;;;;5052327;28;20261;-64
2022/12/25 06:11:49;;;;;;;3.83;3.43;;;12.30;99.90;;;;;;5049406;28;20192;-64
2022/12/25 06:14:15;;;;;;;4.50;4.10;;;12.40;99.90;;;;;;5053788;28;20245;-64
2022/12/25 06:16:41;;;;;;;4.23;4.00;;;12.30;99.90;;;;;;5051957;28;20553;-67
2022/12/25 06:19:07;;;;;;;3.97;3.57;;;12.30;99.90;;;;;;5062365;28;20437;-64
2022/12/25 06:21:33;;;;;;;5.50;3.83;;;12.30;99.90;;;;;;5053953;28;20234;-64
2022/12/25 06:23:59;;;;;;;7.40;4.40;;;12.30;99.90;;;;;;5039921;28;20464;-65
2022/12/25 06:26:25;;;;;;;4.47;4.17;;;12.20;99.90;;;;;;5048143;28;20189;-64
2022/12/25 06:28:52;;;;;;;5.10;4.60;;;12.30;99.90;;;;;;5055741;28;20431;-64
2022/12/25 06:31:20;;;;;;;5.50;5.00;;;12.20;99.90;;;;;;5050206;28;20792;-64
2022/12/25 06:33:47;;;;;;;4.10;3.90;;;12.20;99.90;;;;;;5054412;28;20460;-64
2022/12/25 06:36:15;;;;;;;4.53;4.20;;;12.20;99.90;;;;;;5058185;28;20472;-64
2022/12/25 06:38:42;;;;;;;6.03;4.20;;;12.20;99.90;;;;;;5046815;28;20802;-63
2022/12/25 06:41:11;;;;;;;4.17;3.87;;;12.20;99.90;;;;;;5047482;28;20436;-63
2022/12/25 06:43:37;;;;;;;5.30;4.80;;;12.20;99.90;;;;;;5046701;28;20432;-69
2022/12/25 06:46:04;;;;;;;5.90;4.90;;;12.20;99.90;;;;;;5048793;28;20592;-63
2022/12/25 06:48:32;;;;;;;6.97;6.17;;;12.10;99.90;;;;;;5066537;28;20442;-63
2022/12/25 06:50:58;;;;;;;4.47;4.17;;;12.10;99.90;;;;;;5056490;28;20433;-63
2022/12/25 06:53:23;;;;;;;5.40;5.00;;;12.10;99.90;;;;;;5040829;28;20433;-64
2022/12/25 06:55:49;;;;;;;4.60;4.30;;;12.10;99.90;;;;;;5043581;28;20714;-64
2022/12/25 06:58:15;;;;;;;4.83;4.43;;;12.10;99.90;;;;;;5051914;28;20634;-64
2022/12/25 07:00:41;;;;;;;5.13;4.20;;;12.10;99.90;;;;;;5052991;28;20663;-70
2022/12/25 07:03:10;;;;;;;4.67;4.20;;;12.10;99.90;;;;;;5045926;28;20227;-65
2022/12/25 07:05:35;;;;;;;3.80;3.50;;;12.10;99.90;;;;;;5040547;28;20197;-65
2022/12/25 07:08:01;;;;;;;5.23;4.60;;;12.00;99.90;;;;;;5045555;28;20429;-64
2022/12/25 07:10:26;;;;;;;4.80;4.40;;;12.00;99.90;;;;;;5066859;28;20178;-63
2022/12/25 07:12:52;;;;;;;8.27;6.43;;;11.80;99.90;;;;;;5043073;28;20180;-64
2022/12/25 07:15:18;;;;;;;6.77;5.23;;;11.90;99.90;;;;;;5046922;28;20265;-69
2022/12/25 07:17:43;;;;;;;9.87;5.80;;;11.90;99.90;;;;;;5055467;28;20544;-67
2022/12/25 07:20:09;;;;;;;5.70;5.20;;;11.90;99.90;;;;;;5061039;28;20254;-70
2022/12/25 07:22:35;;;;;;;11.53;5.83;;;11.80;99.90;;;;;;5055987;28;20191;-64
2022/12/25 07:25:01;;;;;;;5.20;4.27;;;11.80;99.90;;;;;;5050255;28;20194;-65
2022/12/25 07:27:29;;;;;;;4.70;4.30;;;11.70;99.90;;;;;;5031349;28;20234;-65
2022/12/25 07:29:55;;;;;;;5.70;5.20;;;11.80;99.90;;;;;;5051314;28;20268;-64
2022/12/25 07:32:20;;;;;;;10.37;5.90;;;11.90;99.90;;;;;;5060405;28;20528;-65
2022/12/25 07:34:46;;;;;;;6.60;4.90;;;11.90;99.90;;;;;;5046244;28;20229;-64
2022/12/25 07:37:12;;;;;;;9.10;6.40;;;12.00;99.90;;;;;;5063822;28;20189;-65
2022/12/25 07:39:38;;;;;;;5.47;4.97;;;12.10;99.90;;;;;;5045960;28;20192;-62
2022/12/25 07:42:03;;;;;;;4.97;4.33;;;12.10;99.90;;;;;;5048307;28;20935;-63
2022/12/25 07:44:29;;;;;;;6.67;5.30;;;12.10;99.90;;;;;;5057208;28;20296;-63
2022/12/25 07:46:55;;;;;;;5.17;4.67;;;12.10;99.90;;;;;;5035306;28;20598;-63
2022/12/25 07:49:20;;;;;;;4.70;4.30;;;12.20;99.90;;;;;;5015135;28;20555;-62
2022/12/25 07:51:46;;;;;;;5.27;4.20;;;12.20;99.90;;;;;;5053564;28;20265;-63
2022/12/25 07:54:12;;;;;;;5.07;4.57;;;12.30;99.90;;;;;;5056399;28;20312;-62
2022/12/25 07:56:37;;;;;;;5.70;4.70;;;12.30;99.90;;;;;;5058556;28;20174;-63
2022/12/25 07:59:03;;;;;;;4.80;4.40;;;12.30;99.90;;;;;;5042215;28;20323;-63
2022/12/25 08:01:29;;;;;;;5.77;3.70;;;12.30;99.90;;;;;;5043838;28;20633;-64
2022/12/25 08:03:57;;;;;;;5.63;4.37;;;12.20;99.90;;;;;;5045935;28;20216;-63
2022/12/25 08:06:28;;;;;;;4.27;3.90;;;12.30;99.90;;;;;;5052136;28;20181;-63
2022/12/25 08:09:01;;;;;;;5.10;4.70;;;12.40;99.90;;;;;;5052509;28;20789;-63
2022/12/25 08:11:27;;;;;;;4.80;4.23;;;12.40;99.90;;;;;;5069443;28;20447;-63
2022/12/25 08:13:53;;;;;;;4.93;4.43;;;12.30;99.90;;;;;;5071725;28;20435;-63
2022/12/25 08:16:18;;;;;;;5.80;5.50;;;12.30;99.90;;;;;;5060729;28;20220;-63
2022/12/25 08:18:44;;;;;;;4.80;4.40;;;12.20;99.90;;;;;;5034302;28;20206;-66
2022/12/25 08:21:12;;;;;;;7.73;5.40;;;12.20;99.90;;;;;;5048387;28;20543;-63
2022/12/25 08:23:40;;;;;;;8.10;4.93;;;12.10;99.90;;;;;;5049518;28;20300;-63
2022/12/25 08:26:09;;;;;;;6.70;4.23;;;12.00;99.90;;;;;;5044625;28;20437;-63
2022/12/25 08:28:35;;;;;;;5.40;4.90;;;12.10;99.90;;;;;;5071151;28;20442;-63
2022/12/25 08:31:17;;;;;;;5.20;4.70;;;12.10;99.90;;;;;;5058166;28;20435;-64
2022/12/25 08:33:43;;;;;;;6.63;6.03;;;12.10;99.90;;;;;;5063876;28;20535;-67
2022/12/25 08:36:10;;;;;;;7.10;4.50;;;12.20;99.90;;;;;;5048725;28;20471;-63
2022/12/25 08:38:36;;;;;;;4.87;4.23;;;12.10;99.90;;;;;;5063216;28;20454;-63
2022/12/25 08:41:02;;;;;;;7.50;4.80;;;12.10;99.90;;;;;;5061732;28;21487;-63
2022/12/25 08:43:28;;;;;;;7.20;5.07;;;12.10;99.90;;;;;;5061680;28;20439;-63
2022/12/25 08:45:54;;;;;;;5.53;4.90;;;12.20;99.90;;;;;;5060785;28;20443;-63
2022/12/25 08:48:20;;;;;;;4.90;4.50;;;12.20;99.90;;;;;;5049222;28;20436;-63
2022/12/25 08:50:50;;;;;;;4.90;4.50;;;12.00;99.90;;;;;;5046453;28;20288;-67
2022/12/25 08:53:17;;;;;;;5.80;4.90;;;12.20;99.90;;;;;;5039687;28;20201;-63
2022/12/25 08:55:43;;;;;;;5.80;4.67;;;12.10;99.90;;;;;;5045573;28;20564;-63
2022/12/25 08:58:09;;;;;;;5.10;4.70;;;12.20;99.90;;;;;;5047060;28;20527;-63
2022/12/25 09:00:35;;;;;;;4.90;4.47;;;12.30;99.90;;;;;;5056179;28;20201;-64
2022/12/25 09:03:01;;;;;;;6.70;4.43;;;12.30;99.90;;;;;;5052467;28;20431;-64
2022/12/25 09:05:27;;;;;;;4.93;4.20;;;12.40;99.90;;;;;;5049354;28;20443;-65
2022/12/25 09:07:52;;;;;;;5.13;4.63;;;12.40;99.90;;;;;;5053726;28;20181;-64
2022/12/25 09:10:18;;;;;;;4.93;4.53;;;12.50;99.90;;;;;;5053579;28;20430;-64
2022/12/25 09:12:44;;;;;;;6.33;5.83;;;12.40;99.90;;;;;;5054516;28;20626;-67
2022/12/25 09:15:10;;;;;;;4.83;4.30;;;12.40;99.90;;;;;;5053852;28;20737;-65
2022/12/25 09:17:35;;;;;;;4.80;4.37;;;12.40;99.90;;;;;;5050932;28;20192;-65
2022/12/25 09:20:01;;;;;;;4.63;4.23;;;12.40;99.90;;;;;;5050623;28;20438;-65
2022/12/25 09:22:27;;;;;;;5.40;5.00;;;12.40;99.90;;;;;;5055436;28;20187;-66
2022/12/25 09:24:52;;;;;;;5.07;4.60;;;12.30;99.90;;;;;;5053428;28;20201;-65
2022/12/25 09:27:18;;;;;;;5.20;4.80;;;12.30;99.90;;;;;;5054076;28;20265;-65
2022/12/25 09:29:44;;;;;;;4.80;4.40;;;12.40;99.90;;;;;;5046898;28;20206;-65
2022/12/25 09:32:10;;;;;;;4.60;4.20;;;12.50;99.90;;;;;;5047795;28;20286;-67
2022/12/25 09:34:35;;;;;;;3.90;3.63;;;12.50;99.90;;;;;;5057068;28;20238;-65
2022/12/25 09:37:01;;;;;;;4.20;3.90;;;12.50;99.90;;;;;;5055734;28;20626;-65
2022/12/25 09:39:27;;;;;;;4.17;3.90;;;12.60;99.90;;;;;;5052244;28;20184;-66
2022/12/25 09:42:04;;;;;;;4.43;4.10;;;12.60;99.90;;;;;;5033812;28;20197;-65
2022/12/25 09:44:41;;;;;;;4.23;3.97;;;12.60;99.90;;;;;;5056068;28;21000;-65
2022/12/25 09:47:20;;;;;;;4.80;4.50;;;12.60;99.90;;;;;;5060701;28;20427;-64
2022/12/25 09:50:00;;;;;;;4.40;4.10;;;12.60;99.90;;;;;;5060599;28;20436;-65
2022/12/25 09:52:37;;;;;;;6.07;5.70;;;12.60;99.90;;;;;;5053322;28;20428;-66
2022/12/25 09:55:21;;;;;;;9.53;9.13;;;12.70;99.90;;;;;;5058424;28;20470;-66
2022/12/25 09:57:55;;;;;;;9.57;9.10;;;13.10;99.90;;;;;;5053251;28;20764;-69
2022/12/25 10:00:24;;;;;;;6.03;5.83;;;13.50;99.90;;;;;;5030418;28;20435;-71
2022/12/25 10:03:15;;;;;;;6.93;6.50;;;13.30;99.90;;;;;;5040424;28;20437;-70
2022/12/25 10:06:03;;;;;;;5.73;5.43;;;13.40;99.90;;;;;;5062922;28;20533;-66
2022/12/25 10:08:34;;;;;;;8.93;8.57;;;13.60;99.90;;;;;;5062299;28;20566;-66
2022/12/25 10:11:21;;;;;;;9.53;8.93;;;13.80;99.90;;;;;;5068918;28;20450;-66
2022/12/25 10:13:53;;;;;;;8.67;8.27;;;14.10;99.90;;;;;;5033979;28;20466;-66
2022/12/25 10:16:34;;;;;;;7.80;7.43;;;14.40;99.90;;;;;;5065926;28;20528;-66
2022/12/25 10:19:24;;;;;;;7.70;7.40;;;14.60;99.90;;;;;;5057267;28;20431;-69
2022/12/25 10:21:54;;;;;;;7.77;7.30;;;14.90;99.90;;;;;;5047245;28;20942;-69
2022/12/25 10:24:42;;;;;;;7.00;6.63;;;15.30;99.90;;;;;;5064335;28;20438;-66
2022/12/25 10:27:26;;;;;;;6.57;6.23;;;15.50;99.90;;;;;;5066751;28;20432;-66
2022/12/25 10:29:55;;;;;;;5.70;5.50;;;15.60;99.90;;;;;;5033746;28;20452;-70
2022/12/25 10:32:22;;;;;;;5.57;5.30;;;15.60;99.90;;;;;;5045141;28;20430;-68
2022/12/25 10:34:53;;;;;;;3.97;3.80;;;15.70;99.90;;;;;;5044901;28;20486;-68
2022/12/25 10:37:19;;;;;;;5.63;5.33;;;15.60;99.90;;;;;;5052945;28;20495;-66
2022/12/25 10:39:44;;;;;;;7.63;7.23;;;15.40;99.90;;;;;;5065112;28;20431;-71
2022/12/25 10:42:37;;;;;;;5.80;5.40;;;15.50;99.90;;;;;;5049750;28;20195;-66
2022/12/25 10:45:06;;;;;;;5.90;5.47;;;15.60;99.90;;;;;;5055367;28;20184;-66
2022/12/25 10:47:36;;;;;;;4.97;4.77;;;15.70;99.90;;;;;;5053205;28;20865;-67
2022/12/25 10:50:18;;;;;;;5.03;4.70;;;15.70;99.90;;;;;;5065124;28;20517;-66
2022/12/25 10:52:58;;;;;;;5.27;4.77;;;15.50;99.90;;;;;;5064440;28;20472;-67
2022/12/25 10:55:24;;;;;;;5.23;4.93;;;15.50;99.90;;;;;;5063322;28;20544;-67
2022/12/25 10:57:50;;;;;;;5.50;5.20;;;15.40;99.90;;;;;;5058843;28;20589;-68
2022/12/25 11:00:27;;;;;;;5.50;5.20;;;15.60;99.90;;;;;;5036806;28;20182;-67
2022/12/25 11:02:53;;;;;;;5.03;4.73;;;15.80;99.90;;;;;;5048992;28;20474;-71
2022/12/25 11:05:29;;;;;;;4.20;4.00;;;16.20;99.90;;;;;;5037738;28;20472;-67
2022/12/25 11:07:57;;;;;;;5.70;5.30;;;16.30;99.90;;;;;;5049704;28;20441;-71
2022/12/25 11:10:33;;;;;;;7.30;6.70;;;16.50;99.90;;;;;;5060444;28;20438;-67
2022/12/25 11:13:00;;;;;;;4.43;4.23;;;16.70;99.90;;;;;;5055002;28;20495;-67
2022/12/25 11:15:44;;;;;;;4.23;3.97;;;16.80;99.90;;;;;;5056679;28;20486;-66
2022/12/25 11:18:23;;;;;;;4.30;4.10;;;16.70;99.90;;;;;;5049881;28;20435;-67
2022/12/25 11:20:58;;;;;;;4.17;3.97;;;16.70;99.90;;;;;;5051968;28;20442;-66
2022/12/25 11:23:26;;;;;;;4.43;4.23;;;16.50;99.90;;;;;;5055725;28;20900;-66
2022/12/25 11:26:05;;;;;;;4.50;4.30;;;16.40;99.90;;;;;;5057331;28;20549;-66
2022/12/25 11:28:33;;;;;;;4.30;4.10;;;16.30;99.90;;;;;;5052404;28;20479;-69
2022/12/25 11:31:20;;;;;;;4.60;4.40;;;16.30;99.90;;;;;;5055704;28;20768;-66
2022/12/25 11:33:57;;;;;;;4.53;4.30;;;15.60;99.90;;;;;;5051703;28;21779;-65
2022/12/25 11:36:44;;;;;;;3.40;3.20;;;15.60;99.90;;;;;;5043993;28;20479;-66
2022/12/25 11:39:18;;;;;;;4.43;4.13;;;15.60;99.90;;;;;;5047883;28;20434;-66
2022/12/25 11:41:45;;;;;;;4.43;4.33;;;15.40;99.90;;;;;;5052738;28;20425;-65
2022/12/25 11:44:37;;;;;;;5.00;4.80;;;15.40;99.90;;;;;;5054652;28;20516;-66
2022/12/25 11:47:12;;;;;;;4.87;4.57;;;15.60;99.90;;;;;;5048913;28;20516;-67
2022/12/25 11:49:46;;;;;;;4.90;4.60;;;15.60;99.90;;;;;;5049582;28;21016;-65
2022/12/25 11:52:13;;;;;;;4.57;4.37;;;15.60;99.90;;;;;;5039642;28;20792;-65
2022/12/25 11:55:02;;;;;;;3.87;3.67;;;15.70;99.90;;;;;;5053602;28;20560;-65
2022/12/25 11:57:29;;;;;;;4.50;4.30;;;15.90;99.90;;;;;;5055966;28;20768;-65
2022/12/25 12:00:03;;;;;;;4.10;3.90;;;16.10;99.90;;;;;;5066944;28;20425;-69
2022/12/25 12:02:35;;;;;;;4.60;4.27;;;16.20;99.90;;;;;;5066811;28;20449;-65
2022/12/25 12:05:11;;;;;;;4.50;4.10;;;16.40;99.90;;;;;;5061158;28;20442;-65
2022/12/25 12:07:46;;;;;;;4.23;4.03;;;16.60;99.90;;;;;;5042177;28;20514;-65
2022/12/25 12:10:18;;;;;;;4.17;3.97;;;16.80;99.90;;;;;;5049550;28;20543;-65
2022/12/25 12:13:08;;;;;;;4.20;4.10;;;16.90;99.90;;;;;;5050992;28;20487;-67
2022/12/25 12:15:46;;;;;;;4.17;3.97;;;17.10;99.90;;;;;;5055037;28;20505;-68
2022/12/25 12:18:26;;;;;;;4.03;3.90;;;17.20;99.90;;;;;;5049465;28;20440;-66
2022/12/25 12:21:16;;;;;;;4.37;4.20;;;17.20;99.90;;;;;;5063453;28;20829;-67
2022/12/25 12:24:03;;;;;;;5.10;4.70;;;17.40;99.90;;;;;;5033889;28;20433;-65
2022/12/25 12:26:36;;;;;;;3.27;3.17;;;17.40;99.90;;;;;;5033326;28;20465;-66
2022/12/25 12:29:04;;;;;;;3.73;3.53;;;17.40;99.90;;;;;;5030788;28;20394;-67
2022/12/25 12:31:47;;;;;;;4.30;4.00;;;17.30;99.90;;;;;;5047951;28;20426;-66
2022/12/25 12:34:39;;;;;;;127.97;77.40;;;17.10;99.90;;;;;;5050864;28;20545;-67
2022/12/25 12:37:24;;;;;;;262.77;195.13;;;17.10;99.90;;;;;;5051598;28;20462;-66
2022/12/25 12:39:53;;;;;;;32.13;23.93;;;17.10;99.90;;;;;;5062307;28;20472;-67
2022/12/25 12:42:32;;;;;;;8.77;7.93;;;16.70;99.90;;;;;;5043092;28;20428;-68
2022/12/25 12:45:08;;;;;;;5.50;5.00;;;16.60;99.90;;;;;;5074190;28;20433;-72
2022/12/25 12:47:41;;;;;;;4.10;3.90;;;16.60;99.90;;;;;;5061382;28;20449;-71
2022/12/25 12:50:31;;;;;;;3.30;3.10;;;16.70;99.90;;;;;;5069304;28;20430;-65
2022/12/25 12:52:59;;;;;;;3.73;3.63;;;16.60;99.90;;;;;;5056742;28;20436;-63
2022/12/25 12:55:34;;;;;;;3.37;3.20;;;16.30;99.90;;;;;;5053007;28;20457;-64
2022/12/25 12:58:05;;;;;;;3.90;3.60;;;16.10;99.90;;;;;;5045803;28;20505;-67
2022/12/25 13:00:47;;;;;;;3.83;3.73;;;15.80;99.90;;;;;;5046448;28;21262;-64
2022/12/25 13:03:33;;;;;;;3.70;3.50;;;15.60;99.90;;;;;;5045697;28;20429;-64
2022/12/25 13:06:15;;;;;;;3.63;3.43;;;15.30;99.90;;;;;;5052800;28;20540;-66
2022/12/25 13:09:09;;;;;;;5.37;4.97;;;15.10;99.90;;;;;;5033346;28;20430;-64
2022/12/25 13:11:40;;;;;;;4.13;3.93;;;14.90;99.90;;;;;;5030012;28;20451;-64
2022/12/25 13:14:14;;;;;;;4.60;4.20;;;14.70;99.90;;;;;;5047185;28;20942;-65
2022/12/25 13:16:43;;;;;;;4.27;4.07;;;14.60;99.90;;;;;;5046576;28;20443;-64
2022/12/25 13:19:21;;;;;;;5.13;4.83;;;14.50;99.90;;;;;;5046630;28;20510;-64
2022/12/25 13:21:51;;;;;;;5.30;5.00;;;14.40;99.90;;;;;;5049550;28;20467;-63
2022/12/25 13:24:20;;;;;;;4.70;4.40;;;14.30;99.90;;;;;;5049349;28;20436;-63
2022/12/25 13:26:46;;;;;;;4.70;4.40;;;14.20;99.90;;;;;;5049487;28;20423;-64
2022/12/25 13:29:28;;;;;;;5.43;5.13;;;14.10;99.90;;;;;;5045424;28;20470;-66
2022/12/25 13:31:56;;;;;;;6.27;5.87;;;14.00;99.90;;;;;;5053911;28;20181;-66
2022/12/25 13:34:30;;;;;;;7.60;7.00;;;14.00;99.90;;;;;;5049854;28;21141;-65
2022/12/25 13:36:56;;;;;;;6.70;6.20;;;13.90;99.90;;;;;;5039521;28;20471;-66
2022/12/25 13:39:23;;;;;;;9.20;8.33;;;13.90;99.90;;;;;;5040213;28;20418;-65
2022/12/25 13:42:04;;;;;;;11.80;10.70;;;13.80;99.90;;;;;;5030986;28;20528;-65
2022/12/25 13:44:41;;;;;;;9.70;8.90;;;13.70;99.90;;;;;;5050078;28;20444;-65
2022/12/25 13:47:18;;;;;;;10.97;10.07;;;13.70;99.90;;;;;;5039458;28;20424;-66
2022/12/25 13:49:45;;;;;;;10.20;9.30;;;13.60;99.90;;;;;;5045693;28;20826;-65
2022/12/25 13:52:13;;;;;;;9.50;8.70;;;13.60;99.90;;;;;;5031694;28;20796;-65
2022/12/25 13:54:58;;;;;;;8.93;8.23;;;13.50;99.90;;;;;;5041620;28;20530;-65
2022/12/25 13:57:32;;;;;;;222.07;133.60;;;13.50;99.90;;;;;;5042729;28;20819;-66
2022/12/25 13:59:58;;;;;;;61.47;42.90;;;13.50;99.90;;;;;;5041483;28;20439;-68
2022/12/25 14:02:30;;;;;;;30.83;25.40;;;13.50;99.90;;;;;;5036375;28;20432;-65
2022/12/25 14:04:56;;;;;;;35.80;29.63;;;13.50;99.90;;;;;;5044097;28;20430;-65
2022/12/25 14:07:23;;;;;;;10.57;9.67;;;13.50;99.90;;;;;;5037476;28;20526;-65
2022/12/25 14:09:55;;;;;;;8.70;8.10;;;13.50;99.90;;;;;;5033778;28;21761;-70
2022/12/25 14:12:22;;;;;;;8.93;8.20;;;13.50;99.90;;;;;;5038788;28;20467;-66
2022/12/25 14:14:50;;;;;;;9.20;8.30;;;13.50;99.90;;;;;;5046762;28;20464;-69
2022/12/25 14:17:17;;;;;;;7.50;7.00;;;13.40;99.90;;;;;;5041906;28;20445;-67
2022/12/25 14:19:42;;;;;;;7.73;7.13;;;13.50;99.90;;;;;;5043621;28;20438;-67
2022/12/25 14:22:19;;;;;;;7.27;6.77;;;13.50;99.90;;;;;;5043219;28;20434;-67
2022/12/25 14:24:45;;;;;;;8.03;7.23;;;13.50;99.90;;;;;;5040113;28;20192;-67
2022/12/25 14:27:25;;;;;;;6.70;6.30;;;13.40;99.90;;;;;;5037555;28;21042;-67
2022/12/25 14:29:54;;;;;;;7.00;6.30;;;13.40;99.90;;;;;;5048482;28;20435;-68
2022/12/25 14:32:23;;;;;;;8.40;6.43;;;13.40;99.90;;;;;;5037533;28;20935;-66
2022/12/25 14:34:57;;;;;;;7.60;6.90;;;13.40;99.90;;;;;;5043910;28;20579;-66
2022/12/25 14:37:27;;;;;;;6.97;6.47;;;13.40;99.90;;;;;;5039832;28;20456;-66
2022/12/25 14:39:59;;;;;;;6.63;6.03;;;13.40;99.90;;;;;;5045449;28;20834;-66
2022/12/25 14:42:28;;;;;;;7.20;6.60;;;13.50;99.90;;;;;;5045826;28;20976;-66